createdAt,value
2019-02-21T00:02:25.666Z,15.70
2019-02-21T00:04:53.444Z,19.82
2019-02-21T00:07:21.122Z,15.10
2019-02-21T00:09:49.142Z,16.10
2019-02-21T00:12:16.995Z,14.47
2019-02-21T00:14:44.835Z,18.02
2019-02-21T00:17:12.682Z,14.95
2019-02-21T00:19:40.547Z,15.05
2019-02-21T00:22:08.400Z,16.00
2019-02-21T00:24:36.308Z,14.40
2019-02-21T00:27:04.080Z,14.13
2019-02-21T00:29:32.010Z,15.80
2019-02-21T00:31:59.776Z,15.60
2019-02-21T00:34:27.617Z,15.23
2019-02-21T00:36:55.402Z,17.02
2019-02-21T00:39:23.299Z,14.80
2019-02-21T00:41:51.061Z,14.95
2019-02-21T00:44:18.879Z,14.47
2019-02-21T00:46:46.613Z,17.52
2019-02-21T00:49:14.269Z,15.10
2019-02-21T00:51:42.144Z,15.10
2019-02-21T00:54:09.933Z,17.40
2019-02-21T00:56:37.769Z,16.12
2019-02-21T00:59:05.602Z,17.52
2019-02-21T01:01:33.379Z,16.70
2019-02-21T01:04:01.250Z,18.52
2019-02-21T01:06:29.102Z,16.85
2019-02-21T01:08:56.987Z,17.30
2019-02-21T01:11:24.812Z,19.85
2019-02-21T01:13:52.585Z,16.27
2019-02-21T01:16:20.663Z,17.37
2019-02-21T01:18:48.534Z,16.32
2019-02-21T01:21:16.321Z,17.60
2019-02-21T01:23:44.050Z,17.35
2019-02-21T01:26:11.882Z,16.87
2019-02-21T01:28:39.822Z,17.00
2019-02-21T01:31:07.459Z,19.07
2019-02-21T01:33:35.314Z,17.73
2019-02-21T01:36:03.074Z,18.52
2019-02-21T01:38:31.004Z,16.42
2019-02-21T01:40:58.673Z,16.05
2019-02-21T01:43:26.436Z,18.95
2019-02-21T01:45:54.118Z,21.45
2019-02-21T01:48:21.860Z,19.77
2019-02-21T01:50:49.594Z,17.82
2019-02-21T01:53:17.342Z,16.75
2019-02-21T01:55:45.094Z,19.48
2019-02-21T01:58:12.855Z,19.73
2019-02-21T02:00:40.725Z,16.05
2019-02-21T02:03:08.569Z,21.97
2019-02-21T02:05:36.254Z,21.12
2019-02-21T02:08:04.085Z,23.92
2019-02-21T02:10:31.767Z,19.67
2019-02-21T02:12:59.424Z,23.67
2019-02-21T02:15:27.209Z,25.08
2019-02-21T02:17:55.058Z,22.37
2019-02-21T02:20:22.718Z,21.85
2019-02-21T02:22:50.378Z,21.60
2019-02-21T02:25:18.194Z,20.75
2019-02-21T02:27:46.003Z,22.30
2019-02-21T02:30:13.878Z,20.70
2019-02-21T02:32:41.452Z,23.50
2019-02-21T02:35:09.187Z,19.95
2019-02-21T02:37:36.874Z,20.27
2019-02-21T02:40:05.123Z,23.15
2019-02-21T02:42:32.991Z,27.55
2019-02-21T02:45:00.840Z,21.15
2019-02-21T02:47:28.604Z,21.70
2019-02-21T02:49:56.478Z,26.17
2019-02-21T02:52:24.264Z,26.70
2019-02-21T02:54:52.024Z,23.18
2019-02-21T02:57:19.590Z,23.65
2019-02-21T02:59:47.389Z,24.98
2019-02-21T03:02:15.057Z,23.50
2019-02-21T03:04:42.893Z,26.17
2019-02-21T03:07:10.718Z,25.27
2019-02-21T03:09:38.590Z,24.15
2019-02-21T03:12:06.441Z,23.22
2019-02-21T03:14:34.270Z,25.27
2019-02-21T03:17:02.144Z,32.45
2019-02-21T03:19:30.023Z,21.82
2019-02-21T03:21:57.844Z,22.95
2019-02-21T03:24:25.498Z,22.52
2019-02-21T03:26:53.350Z,27.17
2019-02-21T03:29:21.114Z,31.02
2019-02-21T03:31:55.017Z,24.87
2019-02-21T03:34:18.459Z,28.27
2019-02-21T03:36:46.298Z,27.27
2019-02-21T03:39:14.115Z,28.70
2019-02-21T03:41:41.863Z,23.42
2019-02-21T03:44:09.529Z,23.20
2019-02-21T03:46:37.398Z,25.10
2019-02-21T03:49:05.054Z,28.80
2019-02-21T03:51:32.767Z,25.02
2019-02-21T03:54:00.539Z,25.48
2019-02-21T03:56:28.493Z,25.27
2019-02-21T03:58:56.153Z,24.02
2019-02-21T04:01:24.233Z,24.57
2019-02-21T04:03:52.014Z,26.87
2019-02-21T04:06:19.749Z,27.80
2019-02-21T04:08:47.783Z,22.98
2019-02-21T04:11:15.534Z,28.73
2019-02-21T04:13:43.510Z,23.77
2019-02-21T04:16:11.222Z,23.27
2019-02-21T04:18:39.038Z,22.52
2019-02-21T04:21:06.798Z,25.70
2019-02-21T04:23:34.455Z,21.93
2019-02-21T04:26:02.023Z,26.15
2019-02-21T04:28:29.757Z,23.87
2019-02-21T04:30:57.413Z,23.10
2019-02-21T04:33:25.270Z,27.32
2019-02-21T04:35:53.144Z,22.10
2019-02-21T04:38:20.899Z,25.37
2019-02-21T04:40:48.553Z,22.77
2019-02-21T04:43:16.327Z,23.95
2019-02-21T04:45:43.910Z,24.23
2019-02-21T04:48:11.819Z,25.52
2019-02-21T04:50:39.482Z,21.97
2019-02-21T04:53:07.312Z,27.62
2019-02-21T04:55:34.998Z,24.65
2019-02-21T04:58:02.779Z,24.25
2019-02-21T05:00:30.418Z,27.30
2019-02-21T05:02:58.290Z,33.23
2019-02-21T05:05:26.144Z,27.95
2019-02-21T05:07:53.999Z,24.87
2019-02-21T05:10:21.967Z,28.52
2019-02-21T05:12:49.825Z,23.90
2019-02-21T05:15:17.773Z,26.02
2019-02-21T05:17:45.578Z,25.00
2019-02-21T05:20:13.609Z,23.67
2019-02-21T05:22:41.174Z,24.20
2019-02-21T05:25:09.016Z,23.57
2019-02-21T05:27:41.484Z,20.43
2019-02-21T05:30:14.106Z,24.18
2019-02-21T05:33:10.018Z,20.80
2019-02-21T05:35:58.925Z,21.20
2019-02-21T05:38:50.610Z,28.20
2019-02-21T05:41:42.141Z,23.62
2019-02-21T05:44:26.575Z,25.57
2019-02-21T05:47:14.293Z,23.45
2019-02-21T05:50:01.662Z,24.00
2019-02-21T05:52:55.609Z,23.62
2019-02-21T05:55:44.393Z,23.67
2019-02-21T05:58:34.432Z,25.40
2019-02-21T06:01:35.471Z,23.92
2019-02-21T06:04:11.672Z,22.80
2019-02-21T06:06:56.390Z,25.85
2019-02-21T06:09:43.641Z,22.98
2019-02-21T06:12:35.560Z,23.98
2019-02-21T06:15:24.639Z,25.65
2019-02-21T06:18:17.812Z,22.85
2019-02-21T06:21:05.337Z,24.75
2019-02-21T06:23:49.087Z,21.37
2019-02-21T06:26:25.130Z,21.48
2019-02-21T06:29:01.863Z,23.47
2019-02-21T06:31:31.254Z,23.32
2019-02-21T06:33:58.889Z,21.17
2019-02-21T06:36:26.675Z,23.18
2019-02-21T06:38:54.545Z,29.50
2019-02-21T06:41:22.229Z,23.00
2019-02-21T06:43:52.570Z,22.87
2019-02-21T06:46:19.491Z,27.05
2019-02-21T06:48:47.316Z,25.35
2019-02-21T06:51:15.262Z,21.37
2019-02-21T06:53:43.033Z,26.93
2019-02-21T06:56:10.724Z,22.48
2019-02-21T06:58:38.631Z,24.57
2019-02-21T07:01:06.296Z,24.52
2019-02-21T07:03:34.348Z,26.12
2019-02-21T07:06:02.039Z,30.25
2019-02-21T07:08:29.865Z,29.27
2019-02-21T07:11:05.961Z,26.62
2019-02-21T07:13:27.345Z,25.88
2019-02-21T07:15:55.032Z,20.72
2019-02-21T07:18:22.782Z,26.00
2019-02-21T07:20:50.644Z,25.35
2019-02-21T07:23:19.189Z,23.18
2019-02-21T07:26:02.424Z,23.55
2019-02-21T07:28:30.758Z,23.87
2019-02-21T07:30:58.871Z,28.73
2019-02-21T07:33:28.749Z,27.82
2019-02-21T07:35:56.514Z,27.77
2019-02-21T07:38:24.324Z,26.60
2019-02-21T07:40:52.308Z,24.02
2019-02-21T07:43:20.711Z,29.00
2019-02-21T07:45:48.624Z,36.40
2019-02-21T07:48:16.328Z,30.68
2019-02-21T07:50:44.073Z,28.67
2019-02-21T07:53:11.854Z,32.48
2019-02-21T07:55:39.594Z,28.55
2019-02-21T07:58:07.494Z,28.20
2019-02-21T08:00:35.228Z,27.85
2019-02-21T08:03:03.035Z,43.35
2019-02-21T08:05:31.237Z,43.40
2019-02-21T08:07:58.910Z,40.28
2019-02-21T08:10:33.458Z,28.02
2019-02-21T08:12:56.363Z,35.23
2019-02-21T08:15:24.125Z,32.58
2019-02-21T08:17:51.807Z,32.23
2019-02-21T08:20:19.633Z,29.80
2019-02-21T08:22:47.416Z,28.10
2019-02-21T08:25:15.077Z,38.38
2019-02-21T08:27:42.952Z,32.00
2019-02-21T08:30:13.022Z,31.93
2019-02-21T08:32:59.222Z,33.20
2019-02-21T08:35:28.538Z,38.70
2019-02-21T08:37:57.113Z,30.77
2019-02-21T08:40:25.186Z,34.43
2019-02-21T08:42:53.053Z,30.85
2019-02-21T08:45:20.754Z,30.43
2019-02-21T08:47:48.517Z,29.87
2019-02-21T08:50:16.233Z,29.45
2019-02-21T08:52:44.166Z,30.88
2019-02-21T08:55:12.042Z,31.50
2019-02-21T08:57:39.990Z,31.35
2019-02-21T09:00:10.898Z,33.67
2019-02-21T09:02:40.331Z,30.05
2019-02-21T09:05:09.503Z,27.90
2019-02-21T09:07:39.160Z,28.07
2019-02-21T09:10:08.353Z,26.65
2019-02-21T09:12:37.418Z,27.90
2019-02-21T09:15:06.990Z,28.20
2019-02-21T09:17:36.502Z,29.15
2019-02-21T09:20:04.270Z,25.48
2019-02-21T09:22:33.648Z,24.23
2019-02-21T09:25:02.801Z,32.10
2019-02-21T09:27:32.509Z,30.27
2019-02-21T09:30:00.277Z,29.82
2019-02-21T09:32:28.232Z,29.55
2019-02-21T09:34:55.913Z,26.52
2019-02-21T09:37:23.586Z,31.85
2019-02-21T09:39:51.342Z,34.20
2019-02-21T09:42:19.031Z,25.95
2019-02-21T09:44:46.982Z,28.55
2019-02-21T09:47:14.871Z,26.80
2019-02-21T09:49:42.625Z,25.70
2019-02-21T09:52:10.405Z,31.12
2019-02-21T09:54:38.165Z,31.40
2019-02-21T09:57:13.304Z,27.67
2019-02-21T09:59:35.510Z,26.33
2019-02-21T10:02:03.287Z,25.57
2019-02-21T10:04:32.400Z,30.62
2019-02-21T10:07:00.226Z,27.80
2019-02-21T10:09:28.149Z,29.42
2019-02-21T10:11:56.107Z,30.02
2019-02-21T10:14:23.830Z,29.20
2019-02-21T10:16:51.688Z,27.67
2019-02-21T10:19:19.359Z,24.95
2019-02-21T10:21:47.362Z,24.32
2019-02-21T10:24:15.043Z,29.48
2019-02-21T10:26:42.802Z,29.12
2019-02-21T10:29:10.685Z,25.62
2019-02-21T10:31:38.563Z,30.88
2019-02-21T10:34:06.241Z,28.07
2019-02-21T10:36:33.974Z,26.57
2019-02-21T10:39:01.693Z,25.85
2019-02-21T10:41:31.062Z,27.73
2019-02-21T10:43:58.787Z,24.95
2019-02-21T10:46:26.532Z,31.60
2019-02-21T10:48:54.321Z,25.50
2019-02-21T10:51:22.113Z,22.75
2019-02-21T10:53:49.870Z,22.50
2019-02-21T10:56:17.620Z,28.15
2019-02-21T10:58:45.386Z,30.20
2019-02-21T11:01:13.273Z,23.32
2019-02-21T11:03:40.954Z,21.25
2019-02-21T11:06:08.848Z,16.97
2019-02-21T11:08:36.750Z,19.77
2019-02-21T11:11:04.736Z,20.10
2019-02-21T11:13:32.477Z,16.67
2019-02-21T11:16:00.179Z,15.15
2019-02-21T11:18:28.174Z,24.37
2019-02-21T11:20:55.933Z,18.07
2019-02-21T11:23:23.616Z,17.57
2019-02-21T11:25:51.278Z,20.90
2019-02-21T11:28:19.218Z,19.45
2019-02-21T11:30:46.799Z,18.37
2019-02-21T11:33:14.662Z,16.90
2019-02-21T11:35:42.605Z,17.25
2019-02-21T11:38:10.369Z,18.07
2019-02-21T11:40:38.062Z,15.28
2019-02-21T11:43:05.820Z,16.07
2019-02-21T11:45:33.507Z,15.43
2019-02-21T11:48:01.476Z,18.32
2019-02-21T11:50:29.465Z,17.85
2019-02-21T11:52:57.209Z,15.35
2019-02-21T11:55:25.097Z,14.30
2019-02-21T11:57:52.870Z,13.58
2019-02-21T12:00:22.312Z,16.00
2019-02-21T12:02:51.638Z,13.75
2019-02-21T12:05:30.236Z,15.95
2019-02-21T12:07:49.422Z,13.70
2019-02-21T12:10:17.176Z,16.27
2019-02-21T12:12:45.056Z,14.35
2019-02-21T12:15:12.985Z,19.17
2019-02-21T12:17:42.845Z,18.40
2019-02-21T12:20:11.535Z,17.25
2019-02-21T12:22:40.798Z,19.02
2019-02-21T12:25:10.233Z,17.70
2019-02-21T12:27:39.488Z,18.30
2019-02-21T12:30:09.567Z,19.27
2019-02-21T12:32:38.900Z,22.13
2019-02-21T12:35:07.110Z,21.30
2019-02-21T12:37:35.005Z,22.42
2019-02-21T12:40:03.343Z,23.05
2019-02-21T12:42:32.638Z,21.55
2019-02-21T12:45:00.606Z,19.30
2019-02-21T12:47:28.578Z,21.95
2019-02-21T12:49:56.555Z,21.10
2019-02-21T12:52:24.238Z,22.22
2019-02-21T12:54:52.045Z,25.20
2019-02-21T12:57:19.677Z,23.87
2019-02-21T12:59:47.460Z,22.17
2019-02-21T13:02:15.244Z,22.40
2019-02-21T13:04:42.931Z,21.90
2019-02-21T13:07:10.873Z,24.45
2019-02-21T13:09:38.688Z,24.12
2019-02-21T13:12:06.733Z,20.97
2019-02-21T13:14:34.409Z,21.82
2019-02-21T13:17:02.075Z,22.15
2019-02-21T13:19:30.062Z,23.42
2019-02-21T13:21:58.028Z,19.27
2019-02-21T13:24:25.733Z,20.27
2019-02-21T13:26:53.610Z,20.95
2019-02-21T13:29:21.398Z,21.87
2019-02-21T13:31:49.271Z,19.00
2019-02-21T13:34:17.058Z,19.17
2019-02-21T13:36:45.085Z,22.50
2019-02-21T13:39:12.957Z,22.30
2019-02-21T13:41:40.722Z,19.82
2019-02-21T13:44:08.506Z,20.17
2019-02-21T13:46:41.365Z,20.10
2019-02-21T13:49:08.640Z,17.15
2019-02-21T13:51:36.539Z,16.48
2019-02-21T13:54:04.560Z,17.90
2019-02-21T13:56:32.322Z,22.00
2019-02-21T13:59:00.074Z,18.40
2019-02-21T14:01:27.989Z,19.35
2019-02-21T14:03:56.669Z,16.65
2019-02-21T14:06:24.675Z,15.38
2019-02-21T14:08:52.490Z,16.60
2019-02-21T14:11:20.749Z,17.17
2019-02-21T14:13:49.476Z,16.07
2019-02-21T14:16:17.207Z,18.10
2019-02-21T14:18:45.096Z,16.42
2019-02-21T14:21:12.985Z,15.83
2019-02-21T14:23:40.836Z,14.73
2019-02-21T14:26:08.454Z,15.40
2019-02-21T14:28:37.473Z,14.28
2019-02-21T14:31:07.457Z,15.83
2019-02-21T14:33:35.455Z,16.55
2019-02-21T14:36:14.769Z,14.45
2019-02-21T14:38:32.958Z,13.90
2019-02-21T14:41:00.767Z,14.23
2019-02-21T14:43:28.495Z,19.87
2019-02-21T14:46:15.500Z,13.25
2019-02-21T14:49:25.550Z,12.78
2019-02-21T14:51:52.534Z,14.90
2019-02-21T14:54:20.314Z,15.05
2019-02-21T14:56:48.108Z,15.18
2019-02-21T16:00:19.671Z,21.10
2019-02-21T16:18:13.878Z,15.28
2019-02-21T16:28:39.443Z,14.63
2019-02-21T16:38:41.940Z,17.62
2019-02-21T16:41:09.766Z,15.85
2019-02-21T16:43:37.444Z,16.20
2019-02-21T16:49:23.083Z,16.85
2019-02-21T16:51:51.080Z,22.73
2019-02-21T16:54:18.861Z,15.45
2019-02-21T16:56:46.570Z,16.85
2019-02-21T16:59:14.483Z,23.20
2019-02-21T17:01:42.243Z,15.90
2019-02-21T17:04:10.132Z,17.15
2019-02-21T17:06:37.895Z,16.23
2019-02-21T17:09:06.651Z,18.17
2019-02-21T17:11:34.736Z,15.98
2019-02-21T17:14:02.489Z,19.85
2019-02-21T17:16:30.510Z,23.85
2019-02-21T17:18:58.215Z,18.50
2019-02-21T17:21:26.064Z,15.28
2019-02-21T17:23:53.952Z,17.27
2019-02-21T17:26:21.856Z,16.70
2019-02-21T17:28:49.576Z,17.70
2019-02-21T17:31:17.474Z,16.93
2019-02-21T17:33:45.206Z,15.72
2019-02-21T17:36:13.087Z,19.07
2019-02-21T17:38:40.916Z,16.70
2019-02-21T17:41:08.808Z,18.05
2019-02-21T17:43:36.691Z,17.65
2019-02-21T17:46:04.492Z,19.45
2019-02-21T17:48:32.210Z,18.05
2019-02-21T17:51:00.281Z,20.00
2019-02-21T17:53:28.203Z,22.20
2019-02-21T17:55:56.088Z,18.55
2019-02-21T17:58:23.940Z,19.07
2019-02-21T18:00:51.863Z,21.05
2019-02-21T18:03:19.657Z,21.30
2019-02-21T18:05:47.566Z,23.87
2019-02-21T18:08:15.438Z,19.87
2019-02-21T18:10:43.383Z,17.85
2019-02-21T18:13:11.299Z,16.55
2019-02-21T18:15:39.145Z,17.75
2019-02-21T18:18:07.136Z,24.30
2019-02-21T18:20:35.057Z,18.80
2019-02-21T18:23:02.979Z,20.55
2019-02-21T18:25:34.343Z,22.55
2019-02-21T18:28:03.874Z,20.48
2019-02-21T18:30:31.905Z,18.17
2019-02-21T18:32:59.714Z,21.00
2019-02-21T18:35:27.731Z,24.27
2019-02-21T18:37:55.606Z,18.17
2019-02-21T18:40:23.557Z,21.23
2019-02-21T18:42:52.386Z,19.98
2019-02-21T18:45:20.309Z,18.07
2019-02-21T18:47:48.222Z,19.85
2019-02-21T18:50:16.027Z,19.85
2019-02-21T18:52:44.299Z,20.08
2019-02-21T18:55:12.522Z,23.12
2019-02-21T18:57:40.316Z,19.17
2019-02-21T19:00:10.238Z,18.90
2019-02-21T19:02:39.586Z,17.50
2019-02-21T19:05:09.733Z,14.87
2019-02-21T19:07:37.569Z,15.78
2019-02-21T19:10:07.301Z,16.93
2019-02-21T19:12:36.645Z,14.50
2019-02-21T19:15:05.362Z,22.15
2019-02-21T19:17:34.823Z,15.65
2019-02-21T19:20:02.888Z,14.95
2019-02-21T19:22:32.237Z,15.32
2019-02-21T19:25:00.315Z,16.35
2019-02-21T19:27:36.840Z,15.13
2019-02-21T19:29:58.057Z,16.17
2019-02-21T19:32:25.801Z,16.82
2019-02-21T19:34:53.757Z,15.85
2019-02-21T19:37:21.791Z,18.27
2019-02-21T19:39:49.645Z,26.73
2019-02-21T19:42:17.680Z,26.52
2019-02-21T19:44:45.489Z,21.95
2019-02-21T19:47:13.413Z,19.90
2019-02-21T19:49:41.244Z,24.35
2019-02-21T19:52:09.152Z,19.48
2019-02-21T19:54:37.083Z,16.45
2019-02-21T19:57:04.991Z,19.62
2019-02-21T19:59:33.002Z,16.77
2019-02-21T20:02:01.054Z,16.85
2019-02-21T20:04:29.068Z,18.32
2019-02-21T20:06:56.932Z,16.57
2019-02-21T20:09:24.963Z,19.45
2019-02-21T20:11:53.139Z,19.50
2019-02-21T20:14:20.957Z,16.57
2019-02-21T20:16:48.734Z,17.15
2019-02-21T20:19:16.651Z,18.65
2019-02-21T20:21:44.672Z,17.70
2019-02-21T20:24:12.593Z,19.50
2019-02-21T20:26:40.490Z,17.48
2019-02-21T20:29:08.286Z,17.32
2019-02-21T20:31:36.303Z,17.17
2019-02-21T20:34:04.118Z,16.82
2019-02-21T20:36:31.980Z,16.80
2019-02-21T20:38:59.973Z,17.25
2019-02-21T20:41:28.311Z,17.37
2019-02-21T20:43:56.130Z,15.83
2019-02-21T20:46:24.033Z,16.12
2019-02-21T20:48:51.802Z,16.05
2019-02-21T20:51:19.597Z,18.92
2019-02-21T20:53:47.409Z,23.95
2019-02-21T20:56:15.395Z,25.90
2019-02-21T20:58:43.361Z,20.05
2019-02-21T21:01:12.582Z,14.50
2019-02-21T21:03:41.107Z,16.00
2019-02-21T21:06:09.043Z,16.07
2019-02-21T21:08:43.411Z,16.00
2019-02-21T21:11:06.577Z,17.32
2019-02-21T21:13:34.443Z,18.98
2019-02-21T21:16:02.088Z,16.02
2019-02-21T21:18:29.982Z,15.72
2019-02-21T21:20:57.838Z,20.00
2019-02-21T21:23:25.430Z,17.57
2019-02-21T21:25:53.209Z,17.25
2019-02-21T21:28:20.929Z,17.95
2019-02-21T21:30:48.806Z,15.63
2019-02-21T21:33:16.503Z,16.12
2019-02-21T21:35:44.280Z,18.92
2019-02-21T21:38:12.128Z,16.45
2019-02-21T21:40:39.942Z,16.67
2019-02-21T21:43:07.823Z,17.25
2019-02-21T21:45:35.725Z,15.63
2019-02-21T21:48:03.467Z,18.52
2019-02-21T21:50:31.374Z,15.15
2019-02-21T21:52:59.199Z,16.85
2019-02-21T21:55:27.025Z,18.10
2019-02-21T21:57:54.913Z,18.75
2019-02-21T22:00:22.910Z,20.20
2019-02-21T22:02:50.787Z,17.92
2019-02-21T22:05:18.641Z,19.45
2019-02-21T22:07:49.076Z,18.65
2019-02-21T22:10:16.121Z,18.15
2019-02-21T22:12:43.950Z,17.92
2019-02-21T22:15:12.014Z,18.87
2019-02-21T22:17:42.210Z,16.85
2019-02-21T22:20:10.222Z,19.55
2019-02-21T22:22:38.178Z,19.12
2019-02-21T22:25:07.348Z,19.15
2019-02-21T22:27:36.703Z,19.60
2019-02-21T22:30:05.447Z,19.82
2019-02-21T22:32:34.972Z,22.22
2019-02-21T22:35:02.763Z,18.12
2019-02-21T22:37:32.283Z,20.32
2019-02-21T22:40:00.026Z,20.43
2019-02-21T22:42:27.868Z,18.95
2019-02-21T22:44:55.868Z,20.70
2019-02-21T22:47:23.567Z,21.80
2019-02-21T22:49:51.367Z,22.90
2019-02-21T22:52:19.197Z,21.30
2019-02-21T22:54:47.157Z,23.52
2019-02-21T22:57:14.874Z,21.15
2019-02-21T22:59:42.801Z,20.75
2019-02-21T23:02:10.618Z,21.40
2019-02-21T23:05:38.751Z,22.50
2019-02-21T23:08:33.050Z,25.37
2019-02-21T23:11:02.516Z,22.73
2019-02-21T23:13:30.374Z,23.42
2019-02-21T23:15:58.153Z,29.67
2019-02-21T23:18:25.806Z,23.62
2019-02-21T23:20:53.512Z,23.05
2019-02-21T23:23:21.486Z,23.05
2019-02-21T23:25:49.332Z,21.75
2019-02-21T23:28:17.170Z,20.70
2019-02-21T23:30:44.948Z,22.35
2019-02-21T23:33:12.844Z,24.25
2019-02-21T23:35:40.719Z,26.80
2019-02-21T23:38:08.627Z,22.95
2019-02-21T23:40:37.054Z,21.33
2019-02-21T23:43:05.004Z,24.55
2019-02-21T23:45:32.684Z,26.62
2019-02-21T23:48:00.598Z,22.20
2019-02-21T23:50:28.374Z,30.80
2019-02-21T23:52:56.264Z,30.23
2019-02-21T23:55:23.968Z,25.80
2019-02-21T23:57:52.030Z,23.73
